Time;durP1;ratioP1;P1;durP2;ratioP2;P2;SDS_P1;SDS_P2;PMS_P1;PMS_P2;Temp;Humidity;BMP_temperature;BMP_pressure;BME280_temperature;BME280_humidity;BME280_pressure;Samples;Min_cycle;Max_cycle;Signal;HPM_P1;HPM_P2
2023/08/30 00:00:50;;;;;;;10.15;8.30;;;;;;;12.06;97.58;100829.38;5049101;28;20518;-52
2023/08/30 00:03:15;;;;;;;12.05;8.95;;;;;;;12.03;97.76;100824.28;5047453;28;20124;-54
2023/08/30 00:05:41;;;;;;;10.35;8.85;;;;;;;12.01;98.14;100821.75;5046893;28;20039;-54
2023/08/30 00:08:07;;;;;;;10.93;8.65;;;;;;;12.00;97.89;100817.38;5047280;28;20116;-54
2023/08/30 00:10:32;;;;;;;9.60;8.60;;;;;;;12.03;97.75;100818.97;5044512;28;20028;-54
2023/08/30 00:12:57;;;;;;;10.85;8.73;;;;;;;11.99;97.98;100820.19;5056223;28;20033;-52
2023/08/30 00:15:23;;;;;;;9.27;7.88;;;;;;;11.95;97.95;100816.94;5048759;28;20025;-54
2023/08/30 00:17:51;;;;;;;10.48;8.65;;;;;;;11.96;98.54;100812.47;5054585;28;20063;-51
2023/08/30 00:20:16;;;;;;;12.20;8.55;;;;;;;11.92;97.80;100817.19;5049067;28;20017;-53
2023/08/30 00:22:42;;;;;;;10.52;8.40;;;;;;;11.91;97.85;100812.84;5049988;28;20028;-52
2023/08/30 00:25:08;;;;;;;9.20;8.25;;;;;;;11.91;98.42;100811.97;5046250;28;20039;-51
2023/08/30 00:27:33;;;;;;;9.85;8.63;;;;;;;11.86;98.16;100807.03;5038665;28;20095;-54
2023/08/30 00:29:58;;;;;;;10.75;9.25;;;;;;;11.85;98.26;100816.81;5041340;28;20036;-51
2023/08/30 00:32:24;;;;;;;11.23;9.02;;;;;;;11.87;98.97;100802.53;5050485;28;20471;-52
2023/08/30 00:34:52;;;;;;;12.23;9.43;;;;;;;11.84;98.39;100809.81;5042226;28;20480;-53
2023/08/30 00:37:17;;;;;;;11.45;8.40;;;;;;;11.85;98.89;100810.66;5047093;28;20112;-51
2023/08/30 00:39:43;;;;;;;9.85;8.85;;;;;;;11.80;99.31;100797.72;5043028;28;20108;-54
2023/08/30 00:42:09;;;;;;;10.60;8.23;;;;;;;11.80;99.16;100799.53;5041832;28;20044;-52
2023/08/30 00:44:34;;;;;;;12.60;8.50;;;;;;;11.78;98.44;100802.31;5053235;28;20020;-51
2023/08/30 00:47:03;;;;;;;9.43;7.53;;;;;;;11.76;99.35;100790.97;5048443;28;20498;-53
2023/08/30 00:49:29;;;;;;;10.38;8.70;;;;;;;11.76;99.28;100779.50;5044967;28;20030;-54
2023/08/30 00:51:56;;;;;;;10.10;8.52;;;;;;;11.75;99.21;100783.13;5053850;28;20029;-54
2023/08/30 00:54:21;;;;;;;10.00;8.63;;;;;;;11.72;99.89;100778.03;5045466;28;20037;-53
2023/08/30 00:56:47;;;;;;;11.30;7.80;;;;;;;11.71;99.07;100782.53;5051392;28;20028;-53
2023/08/30 00:59:13;;;;;;;9.20;8.05;;;;;;;11.69;99.61;100773.84;5049692;28;20396;-51
2023/08/30 01:01:41;;;;;;;9.23;8.30;;;;;;;11.65;99.25;100770.56;5044834;28;20032;-51
2023/08/30 01:04:06;;;;;;;9.80;8.25;;;;;;;11.62;99.58;100773.50;5045926;28;20403;-52
2023/08/30 01:06:31;;;;;;;9.07;8.15;;;;;;;11.62;99.07;100775.28;5052989;28;20020;-54
2023/08/30 01:08:57;;;;;;;9.02;7.72;;;;;;;11.61;99.26;100766.47;5050779;28;20374;-52
2023/08/30 01:11:28;;;;;;;10.02;8.02;;;;;;;11.60;99.22;100772.75;5053543;28;20029;-52
2023/08/30 01:13:59;;;;;;;10.25;8.73;;;;;;;11.57;99.93;100774.81;5046010;28;20029;-55
2023/08/30 01:16:25;;;;;;;10.27;8.23;;;;;;;11.54;99.75;100770.63;5043975;28;20116;-52
2023/08/30 01:18:54;;;;;;;9.60;8.63;;;;;;;11.55;99.50;100771.44;5048246;28;20128;-54
2023/08/30 01:22:12;;;;;;;11.07;8.20;;;;;;;11.56;99.36;100773.16;5044401;28;20029;-51
2023/08/30 01:24:53;;;;;;;9.48;7.65;;;;;;;11.52;99.28;100767.22;5010679;28;20042;-51
2023/08/30 01:27:20;;;;;;;9.05;7.70;;;;;;;11.47;99.53;100767.63;5042804;28;20051;-55
2023/08/30 01:29:46;;;;;;;10.98;8.13;;;;;;;11.43;99.40;100760.84;5050649;28;20025;-55
2023/08/30 01:32:13;;;;;;;10.35;8.10;;;;;;;11.45;100.00;100763.38;5054455;28;20029;-54
2023/08/30 01:34:40;;;;;;;11.00;8.68;;;;;;;11.42;100.00;100761.84;5049095;28;20024;-52
2023/08/30 01:37:09;;;;;;;12.25;8.48;;;;;;;11.42;99.82;100763.63;5050616;28;20057;-54
2023/08/30 01:39:36;;;;;;;10.40;8.40;;;;;;;11.39;100.00;100771.84;5049237;28;20064;-52
2023/08/30 01:42:03;;;;;;;12.85;8.70;;;;;;;11.38;100.00;100768.34;5059399;28;20124;-51
2023/08/30 01:44:30;;;;;;;8.75;7.93;;;;;;;11.36;100.00;100761.47;5049430;28;20383;-54
2023/08/30 01:46:57;;;;;;;10.07;8.18;;;;;;;11.33;100.00;100762.56;5053585;28;20032;-51
2023/08/30 01:49:24;;;;;;;9.75;8.02;;;;;;;11.36;100.00;100766.78;5056593;28;20033;-54
2023/08/30 01:51:51;;;;;;;11.32;8.48;;;;;;;11.30;100.00;100766.31;5054337;28;20029;-53
2023/08/30 01:54:18;;;;;;;10.00;8.52;;;;;;;11.27;100.00;100758.59;5048375;28;20120;-54
2023/08/30 01:56:45;;;;;;;9.30;8.30;;;;;;;11.27;100.00;100755.06;5057086;28;20028;-52
2023/08/30 01:59:10;;;;;;;11.38;8.77;;;;;;;11.23;100.00;100751.81;5051643;28;20064;-51
2023/08/30 02:01:35;;;;;;;9.90;8.30;;;;;;;11.24;100.00;100755.31;5050537;28;20041;-51
2023/08/30 02:04:01;;;;;;;11.15;8.80;;;;;;;11.23;100.00;100759.81;5045911;28;20025;-51
2023/08/30 02:06:48;;;;;;;10.38;8.93;;;;;;;11.25;100.00;100760.50;5052245;28;20032;-51
2023/08/30 02:09:26;;;;;;;9.18;7.63;;;;;;;11.20;100.00;100756.56;5050328;28;20546;-54
2023/08/30 02:11:53;;;;;;;9.60;8.32;;;;;;;11.18;100.00;100747.88;5047443;28;20025;-51
2023/08/30 02:14:20;;;;;;;10.98;8.27;;;;;;;11.13;100.00;100761.50;5049575;28;20033;-51
2023/08/30 02:16:47;;;;;;;9.77;8.70;;;;;;;11.11;100.00;100758.97;5054065;28;20067;-53
2023/08/30 02:19:16;;;;;;;12.77;8.32;;;;;;;11.09;100.00;100747.63;5050578;28;20459;-51
2023/08/30 02:21:42;;;;;;;11.25;8.52;;;;;;;11.08;100.00;100747.75;5045463;28;20024;-53
2023/08/30 02:24:08;;;;;;;10.43;8.07;;;;;;;11.07;100.00;100746.06;5049651;28;20136;-54
2023/08/30 02:26:33;;;;;;;13.02;9.07;;;;;;;11.05;100.00;100738.19;5044306;28;20451;-53
2023/08/30 02:28:59;;;;;;;9.85;8.45;;;;;;;11.08;100.00;100732.66;5055660;28;20067;-52
2023/08/30 02:31:24;;;;;;;12.18;8.90;;;;;;;11.10;100.00;100736.00;5042921;28;20029;-54
2023/08/30 02:33:49;;;;;;;11.77;8.77;;;;;;;11.09;100.00;100733.47;5043078;28;20057;-53
2023/08/30 02:36:15;;;;;;;11.05;8.48;;;;;;;11.12;100.00;100730.56;5045193;28;20321;-53
2023/08/30 02:38:40;;;;;;;10.85;9.45;;;;;;;11.11;100.00;100726.25;5048431;28;20040;-53
2023/08/30 02:41:05;;;;;;;12.80;9.70;;;;;;;11.12;100.00;100725.25;5048606;28;20017;-53
2023/08/30 02:43:31;;;;;;;12.15;9.43;;;;;;;11.17;100.00;100731.03;5048338;28;20480;-53
2023/08/30 02:45:56;;;;;;;12.55;10.05;;;;;;;11.19;100.00;100725.59;5047661;28;20024;-52
2023/08/30 02:48:21;;;;;;;13.88;10.32;;;;;;;11.23;100.00;100733.22;5041194;28;20052;-54
2023/08/30 02:50:47;;;;;;;11.80;10.18;;;;;;;11.26;100.00;100729.47;5051121;28;20499;-51
2023/08/30 02:53:12;;;;;;;13.10;10.80;;;;;;;11.28;100.00;100723.03;5049737;28;20070;-51
2023/08/30 02:55:37;;;;;;;14.70;10.60;;;;;;;11.30;100.00;100713.13;5042813;28;20463;-53
2023/08/30 02:58:03;;;;;;;15.05;10.80;;;;;;;11.35;100.00;100723.38;5049896;28;20044;-53
2023/08/30 03:00:28;;;;;;;13.85;10.82;;;;;;;11.38;100.00;100725.81;5045429;28;20025;-51
2023/08/30 03:02:53;;;;;;;12.80;11.07;;;;;;;11.39;100.00;100719.53;5050189;28;20032;-50
2023/08/30 03:05:19;;;;;;;14.88;11.32;;;;;;;11.41;100.00;100714.91;5054192;28;20025;-49
2023/08/30 03:07:45;;;;;;;15.00;11.30;;;;;;;11.43;100.00;100715.63;5048366;28;20116;-51
2023/08/30 03:10:11;;;;;;;16.63;11.93;;;;;;;11.44;100.00;100719.13;5056483;28;20024;-52
2023/08/30 03:12:37;;;;;;;14.50;11.85;;;;;;;11.49;100.00;100719.63;5047862;28;20025;-51
2023/08/30 03:15:04;;;;;;;14.18;10.93;;;;;;;11.52;100.00;100713.19;5052644;28;20021;-50
2023/08/30 03:17:29;;;;;;;17.58;12.20;;;;;;;11.53;100.00;100715.72;5051227;28;20029;-53
2023/08/30 03:19:54;;;;;;;16.17;11.93;;;;;;;11.56;100.00;100711.97;5054900;28;20079;-52
2023/08/30 03:22:20;;;;;;;14.35;11.30;;;;;;;11.57;100.00;100711.81;5047966;28;20083;-52
2023/08/30 03:24:45;;;;;;;13.77;12.15;;;;;;;11.59;100.00;100709.91;5045567;28;20029;-53
2023/08/30 03:27:10;;;;;;;17.05;11.80;;;;;;;11.62;100.00;100706.13;5053138;28;20017;-51
2023/08/30 03:29:36;;;;;;;14.43;12.32;;;;;;;11.65;100.00;100703.22;5047120;28;20021;-52
2023/08/30 03:32:01;;;;;;;13.48;11.35;;;;;;;11.64;100.00;100694.41;5046709;28;20028;-53
2023/08/30 03:34:26;;;;;;;15.25;11.63;;;;;;;11.67;100.00;100690.63;5038711;28;20048;-51
2023/08/30 03:36:54;;;;;;;16.25;12.70;;;;;;;11.68;100.00;100691.47;5050358;28;20029;-54
2023/08/30 03:39:20;;;;;;;14.55;11.85;;;;;;;11.66;100.00;100680.97;5045567;28;20029;-52
2023/08/30 03:41:46;;;;;;;16.65;12.10;;;;;;;11.69;100.00;100670.06;5048635;28;20445;-51
2023/08/30 03:44:11;;;;;;;16.40;11.63;;;;;;;11.71;100.00;100661.94;5049427;28;20017;-51
2023/08/30 03:46:36;;;;;;;14.85;12.05;;;;;;;11.72;100.00;100648.50;5049524;28;20040;-53
2023/08/30 03:49:03;;;;;;;14.60;12.00;;;;;;;11.75;100.00;100644.75;5049784;28;20035;-54
2023/08/30 03:51:28;;;;;;;15.30;11.98;;;;;;;11.77;100.00;100638.31;5045505;28;20027;-52
2023/08/30 03:53:56;;;;;;;12.80;11.50;;;;;;;11.77;100.00;100635.66;5044424;28;20099;-52
2023/08/30 03:56:21;;;;;;;14.20;12.18;;;;;;;11.78;100.00;100628.53;5047673;28;20021;-53
2023/08/30 03:58:46;;;;;;;21.20;11.93;;;;;;;11.80;100.00;100631.91;5042306;28;20037;-54
2023/08/30 04:01:12;;;;;;;14.90;11.88;;;;;;;11.83;100.00;100624.50;5049225;28;20036;-54
2023/08/30 04:03:37;;;;;;;17.27;12.70;;;;;;;11.82;100.00;100612.19;5043892;28;20028;-52
2023/08/30 04:06:02;;;;;;;14.85;11.93;;;;;;;11.84;100.00;100615.56;5048469;28;20386;-53
2023/08/30 04:08:28;;;;;;;15.63;12.35;;;;;;;11.83;100.00;100608.53;5040934;28;20021;-53
2023/08/30 04:10:53;;;;;;;15.25;12.57;;;;;;;11.84;100.00;100609.41;5048686;28;20475;-51
2023/08/30 04:13:19;;;;;;;19.23;12.68;;;;;;;11.82;100.00;100604.19;5056851;28;20682;-51
2023/08/30 04:15:44;;;;;;;15.20;12.45;;;;;;;11.82;100.00;100609.53;5045865;28;20536;-51
2023/08/30 04:18:09;;;;;;;14.93;12.25;;;;;;;11.83;100.00;100618.34;5045329;28;20524;-51
2023/08/30 04:20:35;;;;;;;12.65;11.00;;;;;;;11.79;100.00;100616.91;5048796;28;20031;-52
2023/08/30 04:23:01;;;;;;;15.80;12.05;;;;;;;11.79;100.00;100615.09;5041854;28;20106;-51
2023/08/30 04:25:28;;;;;;;14.30;11.00;;;;;;;11.81;100.00;100623.78;5052421;28;20103;-49
2023/08/30 04:27:54;;;;;;;14.60;12.00;;;;;;;11.83;100.00;100613.03;5053122;28;20021;-51
2023/08/30 04:30:19;;;;;;;14.93;12.15;;;;;;;11.82;100.00;100609.53;5045824;28;20522;-50
2023/08/30 04:32:44;;;;;;;14.35;12.20;;;;;;;11.82;100.00;100604.19;5044521;28;20079;-52
2023/08/30 04:35:10;;;;;;;16.50;12.57;;;;;;;11.84;100.00;100599.59;5043098;28;20128;-50
2023/08/30 04:37:35;;;;;;;14.02;12.43;;;;;;;11.86;100.00;100602.13;5044391;28;20083;-49
2023/08/30 04:40:03;;;;;;;16.52;12.07;;;;;;;11.86;100.00;100602.13;5049842;28;20025;-53
2023/08/30 04:42:28;;;;;;;13.93;12.10;;;;;;;11.88;100.00;100605.47;5053073;28;20053;-50
2023/08/30 04:44:54;;;;;;;16.65;12.18;;;;;;;11.91;100.00;100607.06;5058310;28;20027;-50
2023/08/30 04:47:20;;;;;;;18.30;12.77;;;;;;;11.93;100.00;100599.81;5045461;28;20556;-51
2023/08/30 04:49:51;;;;;;;13.43;12.02;;;;;;;11.93;100.00;100594.47;5055027;28;20112;-52
2023/08/30 04:52:16;;;;;;;13.32;11.75;;;;;;;11.97;100.00;100594.09;5046395;28;20120;-54
2023/08/30 04:54:42;;;;;;;14.20;12.18;;;;;;;11.98;100.00;100586.94;5050382;28;20112;-53
2023/08/30 04:57:08;;;;;;;16.40;12.75;;;;;;;11.99;100.00;100591.25;5047104;28;20048;-54
2023/08/30 04:59:33;;;;;;;14.15;11.95;;;;;;;12.02;100.00;100577.69;5043813;28;20021;-51
2023/08/30 05:01:59;;;;;;;14.63;12.23;;;;;;;12.05;100.00;100573.94;5042210;28;20029;-53
2023/08/30 05:04:24;;;;;;;14.07;11.85;;;;;;;12.07;100.00;100571.97;5052966;28;20031;-51
2023/08/30 05:06:50;;;;;;;13.82;11.82;;;;;;;12.09;100.00;100578.00;5045440;28;20057;-52
2023/08/30 05:09:15;;;;;;;17.55;12.10;;;;;;;12.13;100.00;100577.59;5050556;28;20028;-53
2023/08/30 05:11:40;;;;;;;15.00;12.00;;;;;;;12.14;100.00;100576.63;5044914;28;20076;-51
2023/08/30 05:14:06;;;;;;;14.65;12.05;;;;;;;12.17;100.00;100578.19;5051844;28;20506;-51
2023/08/30 05:16:32;;;;;;;14.88;12.57;;;;;;;12.20;100.00;100570.75;5048627;28;20037;-51
2023/08/30 05:18:57;;;;;;;14.73;11.63;;;;;;;12.23;100.00;100567.00;5050143;28;20025;-54
2023/08/30 05:21:22;;;;;;;16.23;12.48;;;;;;;12.25;100.00;100559.72;5055852;28;20101;-52
2023/08/30 05:23:48;;;;;;;18.15;12.45;;;;;;;12.27;100.00;100560.41;5056089;28;20100;-51
2023/08/30 05:26:13;;;;;;;13.40;11.90;;;;;;;12.30;100.00;100557.47;5047572;28;20452;-51
2023/08/30 05:28:39;;;;;;;13.43;11.50;;;;;;;12.32;100.00;100557.34;5055978;28;20545;-51
2023/08/30 05:31:05;;;;;;;19.70;12.23;;;;;;;12.33;100.00;100562.53;5049611;28;20029;-53
2023/08/30 05:33:31;;;;;;;14.23;12.00;;;;;;;12.38;100.00;100557.63;5051657;28;20036;-54
2023/08/30 05:35:56;;;;;;;14.73;11.88;;;;;;;12.43;100.00;100564.41;5046458;28;20385;-54
2023/08/30 05:38:22;;;;;;;14.38;12.05;;;;;;;12.45;100.00;100557.94;5058516;28;20070;-52
2023/08/30 05:40:47;;;;;;;16.80;12.85;;;;;;;12.48;100.00;100562.16;5050310;28;20029;-52
2023/08/30 05:43:12;;;;;;;14.93;11.73;;;;;;;12.51;100.00;100551.25;5050997;28;20041;-51
2023/08/30 05:45:38;;;;;;;15.48;12.90;;;;;;;12.55;100.00;100552.63;5051807;28;20471;-51
2023/08/30 05:48:03;;;;;;;15.63;12.65;;;;;;;12.57;100.00;100548.88;5049135;28;20493;-53
2023/08/30 05:50:29;;;;;;;15.80;12.23;;;;;;;12.59;100.00;100544.22;5054956;28;20074;-51
2023/08/30 05:52:54;;;;;;;14.52;12.15;;;;;;;12.65;100.00;100534.84;5041092;28;20386;-51
2023/08/30 05:55:20;;;;;;;15.57;12.48;;;;;;;12.69;100.00;100535.41;5044539;28;20152;-50
2023/08/30 05:57:45;;;;;;;16.15;12.48;;;;;;;12.75;100.00;100532.19;5045439;28;20045;-51
2023/08/30 06:00:12;;;;;;;16.67;11.75;;;;;;;12.76;100.00;100532.03;5055044;28;20032;-51
2023/08/30 06:02:38;;;;;;;16.85;12.27;;;;;;;12.80;100.00;100529.09;5047863;28;20368;-52
2023/08/30 06:05:04;;;;;;;14.02;12.32;;;;;;;12.86;100.00;100528.56;5044991;28;20037;-54
2023/08/30 06:07:29;;;;;;;15.27;12.07;;;;;;;12.89;100.00;100523.78;5039916;28;20025;-51
2023/08/30 06:09:55;;;;;;;13.13;11.52;;;;;;;12.93;100.00;100527.84;5036089;28;20080;-54
2023/08/30 06:12:20;;;;;;;16.02;12.52;;;;;;;12.96;100.00;100530.22;5044819;28;20070;-51
2023/08/30 06:14:51;;;;;;;17.20;12.40;;;;;;;13.01;100.00;100527.13;5055147;28;20024;-51
2023/08/30 06:17:17;;;;;;;15.40;11.80;;;;;;;13.01;100.00;100529.81;5053722;28;20060;-50
2023/08/30 06:19:42;;;;;;;14.10;11.45;;;;;;;13.03;100.00;100522.50;5055272;28;20403;-51
2023/08/30 06:22:07;;;;;;;14.65;11.55;;;;;;;13.09;100.00;100523.75;5053979;28;20179;-51
2023/08/30 06:24:32;;;;;;;14.82;11.93;;;;;;;13.11;100.00;100514.63;5054666;28;20029;-51
2023/08/30 06:26:59;;;;;;;15.30;11.73;;;;;;;13.13;100.00;100519.81;5049137;28;20511;-51
2023/08/30 06:29:25;;;;;;;15.23;11.90;;;;;;;13.13;100.00;100519.81;5053147;28;20036;-53
2023/08/30 06:31:50;;;;;;;15.25;11.60;;;;;;;13.13;100.00;100515.31;5051441;28;20471;-50
2023/08/30 06:34:16;;;;;;;13.77;11.35;;;;;;;13.16;100.00;100519.53;5044961;28;20376;-50
2023/08/30 06:36:41;;;;;;;13.25;11.63;;;;;;;13.20;100.00;100530.78;5054602;28;20493;-53
2023/08/30 06:39:07;;;;;;;13.93;11.77;;;;;;;13.21;100.00;100533.28;5046251;28;20031;-53
2023/08/30 06:41:32;;;;;;;15.10;11.43;;;;;;;13.22;100.00;100532.31;5045778;28;20021;-52
2023/08/30 06:43:58;;;;;;;15.60;11.43;;;;;;;13.25;100.00;100537.34;5042414;28;20041;-52
2023/08/30 06:46:23;;;;;;;14.35;11.77;;;;;;;13.27;100.00;100531.88;5051133;28;20036;-51
2023/08/30 06:48:48;;;;;;;16.55;12.05;;;;;;;13.28;100.00;100529.06;5045189;28;20406;-53
2023/08/30 06:51:14;;;;;;;13.48;11.80;;;;;;;13.30;100.00;100534.25;5046199;28;20033;-52
2023/08/30 06:53:39;;;;;;;16.58;12.45;;;;;;;13.33;100.00;100536.69;5046180;28;20652;-52
2023/08/30 06:56:04;;;;;;;16.67;11.40;;;;;;;13.32;100.00;100535.84;5044242;28;20037;-53
2023/08/30 06:58:30;;;;;;;16.55;12.65;;;;;;;13.31;100.00;100547.44;5047610;28;20033;-52
2023/08/30 07:00:57;;;;;;;16.85;12.88;;;;;;;13.30;100.00;100545.75;5043006;28;20475;-55
2023/08/30 07:03:22;;;;;;;14.43;12.15;;;;;;;13.31;100.00;100538.63;5041230;28;20541;-55
2023/08/30 07:05:50;;;;;;;13.82;12.30;;;;;;;13.32;100.00;100532.31;5046274;28;20029;-52
2023/08/30 07:08:15;;;;;;;14.57;11.88;;;;;;;13.30;100.00;100519.09;5049198;28;20025;-51
2023/08/30 07:10:41;;;;;;;16.05;11.32;;;;;;;13.29;100.00;100509.41;5048822;28;20024;-53
2023/08/30 07:13:10;;;;;;;14.48;10.77;;;;;;;13.27;100.00;100500.72;5039825;28;20017;-53
2023/08/30 07:15:35;;;;;;;;;;;;;;;13.33;100.00;100492.16;5050109;28;20022;-52
2023/08/30 07:18:00;;;;;;;12.23;10.32;;;;;;;13.25;100.00;100494.69;5045236;28;19915;-53
2023/08/30 07:20:26;;;;;;;13.32;10.27;;;;;;;13.23;100.00;100491.31;5047769;28;20025;-54
2023/08/30 07:22:51;;;;;;;12.35;9.73;;;;;;;13.22;100.00;100486.97;5045358;28;20443;-53
2023/08/30 07:25:16;;;;;;;12.70;9.90;;;;;;;13.22;100.00;100480.78;5045318;28;20039;-53
2023/08/30 07:27:42;;;;;;;13.45;9.85;;;;;;;13.21;100.00;100484.47;5048137;28;20025;-53
2023/08/30 07:30:07;;;;;;;10.60;9.50;;;;;;;13.20;100.00;100490.75;5049345;28;20104;-51
2023/08/30 07:32:33;;;;;;;13.32;9.20;;;;;;;13.19;100.00;100483.75;5054128;28;20036;-54
2023/08/30 07:34:58;;;;;;;10.63;9.02;;;;;;;13.19;100.00;100483.75;5043486;28;20455;-52
2023/08/30 07:37:25;;;;;;;11.68;9.05;;;;;;;13.16;100.00;100481.38;5046969;28;20442;-52
2023/08/30 07:39:51;;;;;;;11.38;8.30;;;;;;;13.16;100.00;100484.06;5055100;28;20141;-51
2023/08/30 07:42:16;;;;;;;10.63;8.45;;;;;;;13.13;100.00;100475.34;5046869;28;20487;-51
2023/08/30 07:44:41;;;;;;;12.13;7.85;;;;;;;13.14;100.00;100468.19;5046392;28;20035;-52
2023/08/30 07:47:07;;;;;;;10.68;7.80;;;;;;;13.13;100.00;100475.34;5036306;28;20040;-52
2023/08/30 07:49:32;;;;;;;9.85;7.93;;;;;;;13.10;100.00;100475.63;5039237;28;20030;-52
2023/08/30 07:51:57;;;;;;;12.85;8.20;;;;;;;13.13;100.00;100464.66;5041965;28;20029;-51
2023/08/30 07:54:23;;;;;;;10.57;8.05;;;;;;;13.17;100.00;100464.38;5042255;28;20040;-54
2023/08/30 07:56:48;;;;;;;9.30;8.23;;;;;;;13.14;100.00;100463.69;5049927;28;20491;-51
2023/08/30 07:59:13;;;;;;;10.85;7.95;;;;;;;13.17;100.00;100467.03;5024817;28;20236;-54
2023/08/30 08:01:38;;;;;;;10.63;8.15;;;;;;;13.19;100.00;100462.41;5037671;28;20071;-52
2023/08/30 08:04:04;;;;;;;9.43;7.68;;;;;;;13.19;100.00;100468.59;5041519;28;20021;-53
2023/08/30 08:06:29;;;;;;;10.13;7.38;;;;;;;13.21;100.00;100466.63;5039968;28;20534;-50
2023/08/30 08:08:55;;;;;;;9.05;7.50;;;;;;;13.23;100.00;100469.97;5043057;28;20094;-52
2023/08/30 08:11:20;;;;;;;10.63;7.10;;;;;;;13.22;100.00;100468.31;5039057;28;20020;-53
2023/08/30 08:13:45;;;;;;;8.30;7.05;;;;;;;13.24;100.00;100477.00;5038382;28;20048;-53
2023/08/30 08:16:11;;;;;;;9.13;6.85;;;;;;;13.25;100.00;100473.34;5035780;28;20091;-53
2023/08/30 08:18:36;;;;;;;9.65;6.70;;;;;;;13.27;100.00;100473.19;5040850;28;20458;-52
2023/08/30 08:21:02;;;;;;;7.43;6.20;;;;;;;13.27;100.00;100476.72;5037151;28;20468;-52
2023/08/30 08:23:27;;;;;;;7.43;6.72;;;;;;;13.27;100.00;100478.53;5045905;28;20072;-53
2023/08/30 08:25:59;;;;;;;7.50;6.03;;;;;;;13.28;100.00;100480.22;5041982;28;20021;-51
2023/08/30 08:28:25;;;;;;;7.97;5.90;;;;;;;13.28;100.00;100473.06;5045890;28;20035;-54
2023/08/30 08:30:51;;;;;;;6.60;5.88;;;;;;;13.31;100.00;100469.28;5040194;28;20021;-54
2023/08/30 08:33:17;;;;;;;8.77;5.57;;;;;;;13.30;100.00;100475.56;5037353;28;20137;-52
2023/08/30 08:35:43;;;;;;;7.45;6.00;;;;;;;13.33;100.00;100478.00;5036856;28;20033;-51
2023/08/30 08:38:08;;;;;;;9.38;5.95;;;;;;;13.33;100.00;100475.31;5041652;28;20031;-50
2023/08/30 08:40:37;;;;;;;6.43;5.38;;;;;;;13.37;100.00;100473.22;5039555;28;20483;-51
2023/08/30 08:43:04;;;;;;;7.22;5.13;;;;;;;13.40;100.00;100468.41;5045642;28;20507;-50
2023/08/30 08:45:32;;;;;;;8.57;5.68;;;;;;;13.42;100.00;100465.59;5044343;28;20037;-50
2023/08/30 08:47:57;;;;;;;6.65;5.68;;;;;;;13.43;100.00;100468.13;5044181;28;20033;-50
2023/08/30 08:50:23;;;;;;;6.57;5.53;;;;;;;13.46;100.00;100470.50;5044949;28;20033;-50
2023/08/30 08:52:49;;;;;;;5.95;5.30;;;;;;;13.46;100.00;100472.34;5046937;28;20029;-51
2023/08/30 08:55:14;;;;;;;6.70;5.10;;;;;;;13.49;100.00;100474.72;5052057;28;20029;-50
2023/08/30 08:57:40;;;;;;;7.65;5.43;;;;;;;13.52;100.00;100466.41;5053960;28;20055;-52
2023/08/30 09:00:06;;;;;;;6.20;4.95;;;;;;;13.58;100.00;100470.34;5045147;28;20034;-50
2023/08/30 09:02:32;;;;;;;6.85;5.25;;;;;;;13.64;100.00;100480.44;5043013;28;20031;-51
2023/08/30 09:04:59;;;;;;;7.22;5.38;;;;;;;13.67;100.00;100467.63;5049639;28;20022;-50
2023/08/30 09:07:27;;;;;;;6.93;5.32;;;;;;;13.73;100.00;100473.38;5040113;28;20021;-50
2023/08/30 09:09:54;;;;;;;6.33;5.70;;;;;;;13.81;100.00;100465.47;5036858;28;20079;-51
2023/08/30 09:12:21;;;;;;;7.65;5.97;;;;;;;13.92;100.00;100470.59;5041419;28;20025;-54
2023/08/30 09:14:56;;;;;;;8.68;6.57;;;;;;;14.00;100.00;100467.19;5040513;28;20021;-53
2023/08/30 09:17:21;;;;;;;7.53;6.10;;;;;;;14.11;100.00;100455.47;5050078;28;20074;-51
2023/08/30 09:19:47;;;;;;;9.10;5.85;;;;;;;14.21;100.00;100451.72;5049577;28;20387;-52
2023/08/30 09:22:12;;;;;;;8.10;6.40;;;;;;;14.28;100.00;100457.31;5049974;28;20120;-50
2023/08/30 09:24:41;;;;;;;6.82;6.13;;;;;;;14.36;100.00;100457.41;5047649;28;20032;-53
2023/08/30 09:27:07;;;;;;;8.20;6.07;;;;;;;14.40;100.00;100466.78;5047494;28;20116;-50
2023/08/30 09:29:33;;;;;;;6.97;5.80;;;;;;;14.47;100.00;100471.50;5045720;28;20083;-51
2023/08/30 09:32:00;;;;;;;6.63;5.97;;;;;;;14.52;100.00;100471.91;5040268;28;20252;-51
2023/08/30 09:34:26;;;;;;;6.63;5.68;;;;;;;14.57;100.00;100467.78;5040284;28;20028;-50
2023/08/30 09:36:52;;;;;;;7.43;6.20;;;;;;;14.67;100.00;100473.09;5047344;28;20096;-50
2023/08/30 09:39:18;;;;;;;6.78;6.07;;;;;;;14.76;100.00;100471.31;5049262;28;20032;-50
2023/08/30 09:41:46;;;;;;;6.63;5.93;;;;;;;14.84;100.00;100466.06;5045247;28;20423;-50
2023/08/30 09:44:13;;;;;;;7.18;6.47;;;;;;;14.90;100.00;100469.94;5054653;28;20352;-51
2023/08/30 09:46:46;;;;;;;7.40;6.70;;;;;;;14.93;100.00;100466.94;5040766;28;20026;-50
2023/08/30 09:49:12;;;;;;;9.75;6.70;;;;;;;15.03;100.00;100466.84;5040733;28;20310;-50
2023/08/30 09:51:42;;;;;;;9.07;7.38;;;;;;;15.21;100.00;100472.19;5039979;28;20113;-52
2023/08/30 09:54:15;;;;;;;7.88;7.07;;;;;;;15.46;100.00;100476.66;5037875;28;20395;-51
2023/08/30 09:56:41;;;;;;;8.00;6.95;;;;;;;15.65;100.00;100466.72;5038925;28;20029;-51
2023/08/30 09:59:07;;;;;;;8.38;7.30;;;;;;;15.91;100.00;100466.72;5046984;28;20108;-52
2023/08/30 10:01:32;;;;;;;7.90;7.07;;;;;;;16.07;100.00;100460.56;5043343;28;20059;-54
2023/08/30 10:03:58;;;;;;;8.25;7.45;;;;;;;16.24;100.00;100458.78;5043175;28;20017;-49
2023/08/30 10:06:24;;;;;;;7.78;7.10;;;;;;;16.40;100.00;100455.28;5047958;28;20021;-51
2023/08/30 10:08:53;;;;;;;7.60;6.75;;;;;;;16.60;100.00;100447.75;5046322;28;20032;-50
2023/08/30 10:11:19;;;;;;;8.23;7.53;;;;;;;16.88;100.00;100447.47;5031830;28;20043;-50
2023/08/30 10:13:46;;;;;;;8.23;7.43;;;;;;;17.06;100.00;100442.75;5053351;28;20035;-50
2023/08/30 10:16:20;;;;;;;10.73;7.45;;;;;;;17.41;100.00;100437.97;5050825;28;20029;-51
2023/08/30 10:18:50;;;;;;;7.72;7.03;;;;;;;17.67;100.00;100443.09;5048669;28;20482;-50
2023/08/30 10:21:18;;;;;;;7.50;6.60;;;;;;;17.82;100.00;100445.91;5051814;28;20094;-51
2023/08/30 10:23:46;;;;;;;7.73;6.70;;;;;;;18.08;100.00;100450.16;5055966;28;20028;-52
2023/08/30 10:26:12;;;;;;;7.40;6.70;;;;;;;18.24;100.00;100443.88;5050022;28;20025;-51
2023/08/30 10:28:39;;;;;;;8.50;6.53;;;;;;;18.35;100.00;100440.75;5050675;28;20025;-50
2023/08/30 10:31:05;;;;;;;6.82;6.25;;;;;;;18.46;100.00;100429.56;5041648;28;20025;-50
2023/08/30 10:33:30;;;;;;;7.25;6.65;;;;;;;18.61;100.00;100435.00;5045219;28;20124;-51
2023/08/30 10:36:05;;;;;;;6.20;5.70;;;;;;;18.67;100.00;100428.91;5044998;28;20059;-52
2023/08/30 10:38:32;;;;;;;5.95;5.35;;;;;;;18.89;100.00;100441.72;5045420;28;20031;-51
2023/08/30 10:41:09;;;;;;;6.28;5.78;;;;;;;18.97;99.54;100434.41;5050407;28;20109;-51
2023/08/30 10:43:37;;;;;;;6.30;5.75;;;;;;;19.15;99.13;100435.91;5043657;28;20494;-53
2023/08/30 10:46:06;;;;;;;6.50;5.90;;;;;;;19.42;99.47;100434.47;5046040;28;20082;-52
2023/08/30 10:48:39;;;;;;;;;;;;;;;19.53;100.00;100435.84;5042080;28;20028;-53
2023/08/30 10:51:15;;;;;;;5.15;4.65;;;;;;;19.58;93.98;100434.28;5043084;28;20440;-50
2023/08/30 10:53:41;;;;;;;5.50;4.85;;;;;;;19.88;93.76;100430.72;5048592;28;20387;-53
2023/08/30 10:56:10;;;;;;;5.63;4.30;;;;;;;19.95;87.92;100431.63;5041221;28;20025;-51
2023/08/30 10:58:41;;;;;;;4.22;3.80;;;;;;;19.99;87.22;100442.91;5044120;28;20047;-51
2023/08/30 11:01:09;;;;;;;6.35;4.20;;;;;;;20.12;89.60;100433.09;5045681;28;20506;-49
2023/08/30 11:03:35;;;;;;;3.97;3.47;;;;;;;20.15;87.43;100437.25;5046019;28;20043;-49
2023/08/30 11:06:02;;;;;;;5.50;3.55;;;;;;;20.31;86.64;100437.00;5046466;28;20021;-50
2023/08/30 11:08:29;;;;;;;4.68;3.67;;;;;;;20.49;85.21;100433.88;5043268;28;20021;-50